Puerta de Luna, New Mexico
Current Conditions -  °F | °C
As of 2:53 PM on Monday 22 Dec 2014 (Local Time) from KCQC Reporting Station
Light Rain Light Rain  
Wind Chill: 31°   Ceiling: 3200
Heat Index: 43°   Visibility: 10mi
Dew Point: 31°   Wind: 44mph
Humidity: 62%   Direction: 310°NW
Pressure: 29.68"   Gusts: 61mph
Location:  34.8581°N, 104.704°W
Report Text: KCQC 222153Z AUTO 31038G53KT 10SM -RA BKN032 BKN050 OVC080 06/M01 A2968 RMK AO2 PK WND 31053/2146 RAB45 PRESRR SLP013 P0000 T00611006
Loading
Personal Weather Stations






























Interactive Weather Map New forecast layout! Learn more

10-Day Weather Forecast

Advertisements
Track Severe Weather on mobile